Time;durP1;ratioP1;P1;durP2;ratioP2;P2;SDS_P1;SDS_P2;PMS_P1;PMS_P2;Temp;Humidity;BMP_temperature;BMP_pressure;BME280_temperature;BME280_humidity;BME280_pressure;Samples;Min_cycle;Max_cycle;Signal;HPM_P1;HPM_P2
2022/08/31 00:06:07;;;;;;;25.63;17.55;;;22.90;64.70;;;;;;5026587;28;20039;-78
2022/08/31 00:08:33;;;;;;;25.52;17.55;;;22.90;64.70;;;;;;5034020;28;20045;-78
2022/08/31 00:10:59;;;;;;;24.15;17.85;;;22.90;64.80;;;;;;5031684;28;20029;-78
2022/08/31 00:13:27;;;;;;;26.60;17.65;;;22.90;64.70;;;;;;5032034;28;20024;-77
2022/08/31 00:15:54;;;;;;;24.55;17.40;;;22.90;64.80;;;;;;5026728;28;20025;-78
2022/08/31 00:18:21;;;;;;;22.63;16.35;;;22.90;65.00;;;;;;5031323;28;20037;-78
2022/08/31 00:20:47;;;;;;;24.67;17.27;;;22.90;64.80;;;;;;5001523;28;20544;-78
2022/08/31 00:23:15;;;;;;;24.73;17.08;;;22.90;64.90;;;;;;5029541;28;20026;-77
2022/08/31 00:25:45;;;;;;;22.60;15.57;;;22.90;65.00;;;;;;4996892;28;20079;-78
2022/08/31 00:28:12;;;;;;;;;;;22.90;64.90;;;;;;5035222;28;20029;-78
2022/08/31 00:30:39;;;;;;;26.55;16.98;;;22.80;65.00;;;;;;5013870;28;19988;-78
2022/08/31 00:33:06;;;;;;;32.70;16.73;;;22.90;65.10;;;;;;5015219;28;20083;-78
2022/08/31 00:35:34;;;;;;;30.90;16.63;;;22.80;65.00;;;;;;5032575;28;20021;-78
2022/08/31 00:38:02;;;;;;;26.35;15.73;;;22.80;65.20;;;;;;5031584;28;20490;-79
2022/08/31 00:40:28;;;;;;;25.10;17.40;;;22.80;65.10;;;;;;4998385;28;20042;-77
2022/08/31 00:42:54;;;;;;;23.85;15.40;;;22.80;65.10;;;;;;4997461;28;20021;-77
2022/08/31 00:45:21;;;;;;;22.17;15.43;;;22.80;65.20;;;;;;5005563;28;20034;-77
2022/08/31 00:47:47;;;;;;;23.48;15.07;;;22.80;65.00;;;;;;4998752;28;20037;-78
2022/08/31 00:50:16;;;;;;;23.83;15.75;;;22.80;65.00;;;;;;5013361;28;20030;-78
2022/08/31 00:52:51;;;;;;;22.55;15.68;;;22.80;65.30;;;;;;5016089;28;20030;-77
2022/08/31 00:55:22;;;;;;;22.00;14.65;;;22.80;65.20;;;;;;5014267;28;20068;-77
2022/08/31 00:57:51;;;;;;;20.80;15.13;;;22.90;65.20;;;;;;5039097;28;20032;-76
2022/08/31 01:00:24;;;;;;;23.50;15.35;;;22.80;65.10;;;;;;5036674;23;20390;-80
2022/08/31 01:02:51;;;;;;;26.10;15.05;;;22.90;65.20;;;;;;5025717;28;20538;-79
2022/08/31 01:05:18;;;;;;;21.73;15.07;;;22.80;65.20;;;;;;5027266;28;20029;-80
2022/08/31 01:07:54;;;;;;;19.67;14.18;;;22.80;65.30;;;;;;5028180;28;20017;-80
2022/08/31 01:10:23;;;;;;;23.17;15.02;;;22.80;65.20;;;;;;5022956;28;20470;-81
2022/08/31 01:12:52;;;;;;;19.40;14.43;;;22.80;65.20;;;;;;4998288;28;20036;-81
2022/08/31 01:15:19;;;;;;;20.80;14.32;;;22.80;65.30;;;;;;4998176;28;20043;-81
2022/08/31 01:17:48;;;;;;;20.23;14.23;;;22.80;65.30;;;;;;5005887;28;20029;-79
2022/08/31 01:20:27;;;;;;;19.20;13.15;;;22.80;65.30;;;;;;5012215;28;20029;-79
2022/08/31 01:23:14;;;;;;;19.80;13.93;;;22.80;65.40;;;;;;5013367;28;20057;-80
2022/08/31 01:25:43;;;;;;;21.40;14.23;;;22.80;65.30;;;;;;5026982;28;20412;-80
2022/08/31 01:28:10;;;;;;;19.98;13.98;;;22.80;65.40;;;;;;5013918;28;20025;-80
2022/08/31 01:30:38;;;;;;;19.15;13.35;;;22.80;65.40;;;;;;5012437;28;20021;-79
2022/08/31 01:33:04;;;;;;;19.92;14.15;;;22.80;65.30;;;;;;5013579;28;20032;-78
2022/08/31 01:35:32;;;;;;;18.95;12.93;;;22.80;65.40;;;;;;5005928;28;20128;-78
2022/08/31 01:37:59;;;;;;;21.20;13.45;;;22.80;65.50;;;;;;5013601;28;20022;-78
2022/08/31 01:40:33;;;;;;;20.13;13.95;;;22.80;65.40;;;;;;5023419;28;20496;-78
2022/08/31 01:42:59;;;;;;;16.13;11.77;;;22.80;65.40;;;;;;5031323;28;20025;-78
2022/08/31 01:45:25;;;;;;;17.27;12.82;;;22.80;65.50;;;;;;4987307;28;20033;-78
2022/08/31 01:47:51;;;;;;;17.42;12.63;;;22.80;65.20;;;;;;5001233;28;20021;-79
2022/08/31 01:50:17;;;;;;;18.00;12.40;;;22.80;65.30;;;;;;4985328;28;20092;-79
2022/08/31 01:52:43;;;;;;;18.13;12.70;;;22.80;65.40;;;;;;4997516;28;20040;-79
2022/08/31 01:55:09;;;;;;;18.73;12.20;;;22.80;65.50;;;;;;5013651;28;20029;-79
2022/08/31 01:57:34;;;;;;;20.83;12.15;;;22.80;65.40;;;;;;5013891;28;20037;-79
2022/08/31 02:00:19;;;;;;;17.80;12.50;;;22.80;65.50;;;;;;5014102;28;20509;-77
2022/08/31 02:02:46;;;;;;;18.33;11.57;;;22.80;65.60;;;;;;5013048;28;20021;-77
2022/08/31 02:05:13;;;;;;;16.83;11.60;;;22.80;65.50;;;;;;4996680;28;20048;-76
2022/08/31 02:07:39;;;;;;;17.08;11.88;;;22.80;65.60;;;;;;4997406;28;20017;-77
2022/08/31 02:10:06;;;;;;;15.98;11.48;;;22.80;65.70;;;;;;5030056;28;20400;-81
2022/08/31 02:12:31;;;;;;;19.90;11.57;;;22.80;65.70;;;;;;5031354;28;20390;-81
2022/08/31 02:14:57;;;;;;;17.40;11.60;;;22.80;65.70;;;;;;5006073;28;20032;-81
2022/08/31 02:17:23;;;;;;;16.60;11.50;;;22.80;65.80;;;;;;4980315;28;20045;-81
2022/08/31 02:19:49;;;;;;;18.13;10.80;;;22.80;65.80;;;;;;4997639;28;20034;-81
2022/08/31 02:22:15;;;;;;;18.85;11.38;;;22.80;65.80;;;;;;5012699;28;20507;-81
2022/08/31 02:24:42;;;;;;;17.58;11.60;;;22.80;65.90;;;;;;4997210;28;20555;-81
2022/08/31 02:27:07;;;;;;;15.93;11.20;;;22.80;65.90;;;;;;5012262;28;20045;-81
2022/08/31 02:29:34;;;;;;;17.15;10.50;;;22.80;66.00;;;;;;5023597;28;20486;-81
2022/08/31 02:32:00;;;;;;;15.98;10.48;;;22.80;65.90;;;;;;5032772;28;20021;-81
2022/08/31 02:34:28;;;;;;;16.42;10.85;;;22.80;65.90;;;;;;5024946;28;20018;-81
2022/08/31 02:36:55;;;;;;;17.02;11.27;;;22.80;65.80;;;;;;5006731;28;20450;-80
2022/08/31 02:39:21;;;;;;;19.00;10.48;;;22.80;65.80;;;;;;5002609;28;20497;-80
2022/08/31 02:41:47;;;;;;;17.13;11.13;;;22.80;65.80;;;;;;5030777;28;20018;-80
2022/08/31 02:44:13;;;;;;;18.48;10.80;;;22.80;65.90;;;;;;5013349;28;20618;-80
2022/08/31 02:46:40;;;;;;;16.80;10.25;;;22.80;66.00;;;;;;4987674;28;20026;-81
2022/08/31 02:49:34;;;;;;;16.13;10.90;;;22.80;66.00;;;;;;5013321;28;20040;-80
2022/08/31 02:52:00;;;;;;;17.52;11.10;;;22.70;65.90;;;;;;5030133;28;20116;-80
2022/08/31 02:54:26;;;;;;;16.48;9.75;;;22.70;65.90;;;;;;5038360;28;20493;-80
2022/08/31 02:56:52;;;;;;;16.60;10.25;;;22.80;66.00;;;;;;5023520;28;20113;-81
2022/08/31 02:59:19;;;;;;;17.48;9.70;;;22.80;66.00;;;;;;5009328;28;20037;-80
2022/08/31 03:01:46;;;;;;;16.33;9.95;;;22.80;65.90;;;;;;5013260;28;20133;-80
2022/08/31 03:04:15;;;;;;;16.00;10.20;;;22.80;66.00;;;;;;5013187;28;20033;-81
2022/08/31 03:06:41;;;;;;;12.82;9.93;;;22.80;65.90;;;;;;5012708;28;20121;-81
2022/08/31 03:09:07;;;;;;;14.77;10.52;;;22.80;65.90;;;;;;4996039;28;20052;-81
2022/08/31 03:11:33;;;;;;;15.65;9.38;;;22.80;66.00;;;;;;5012844;28;20087;-79
2022/08/31 03:13:59;;;;;;;14.30;9.55;;;22.70;65.90;;;;;;5015363;28;20025;-80
2022/08/31 03:16:25;;;;;;;15.60;9.85;;;22.80;66.10;;;;;;4999142;28;20425;-79
2022/08/31 03:18:51;;;;;;;16.08;10.23;;;22.70;66.00;;;;;;4997085;28;20129;-79
2022/08/31 03:21:17;;;;;;;16.88;9.65;;;22.70;66.10;;;;;;5039527;28;20043;-79
2022/08/31 03:23:43;;;;;;;18.52;9.90;;;22.70;66.00;;;;;;5016185;28;20439;-79
2022/08/31 03:26:09;;;;;;;13.65;8.77;;;22.80;66.10;;;;;;5000254;28;20479;-79
2022/08/31 03:28:37;;;;;;;15.77;8.82;;;22.80;65.90;;;;;;5015754;28;20096;-80
2022/08/31 03:31:26;;;;;;;15.73;9.52;;;22.80;66.00;;;;;;5004295;28;20033;-80
2022/08/31 03:33:52;;;;;;;14.13;9.60;;;22.70;65.90;;;;;;4999978;28;20437;-80
2022/08/31 03:36:18;;;;;;;15.85;10.13;;;22.80;65.90;;;;;;5015498;28;20037;-80
2022/08/31 03:38:44;;;;;;;15.45;8.90;;;22.80;65.90;;;;;;5015636;28;20026;-79
2022/08/31 03:41:12;;;;;;;15.45;9.30;;;22.80;66.10;;;;;;4997334;28;20120;-80
2022/08/31 03:43:38;;;;;;;14.25;8.75;;;22.80;66.00;;;;;;5015756;28;20492;-81
2022/08/31 03:46:04;;;;;;;14.07;8.50;;;22.80;65.80;;;;;;5048960;28;20167;-80
2022/08/31 03:48:30;;;;;;;17.35;9.75;;;22.80;65.80;;;;;;5014307;28;20021;-80
2022/08/31 03:50:56;;;;;;;11.82;7.88;;;22.80;66.00;;;;;;5015853;28;20028;-81
2022/08/31 03:53:25;;;;;;;13.75;9.02;;;22.80;65.90;;;;;;5016252;28;20032;-81
2022/08/31 03:56:00;;;;;;;15.25;9.10;;;22.80;66.00;;;;;;5012654;28;20025;-80
2022/08/31 03:58:29;;;;;;;15.05;8.75;;;22.80;65.90;;;;;;5027287;28;20030;-80
2022/08/31 04:00:55;;;;;;;12.30;8.18;;;22.70;66.00;;;;;;4985051;28;20041;-80
2022/08/31 04:03:47;;;;;;;15.23;9.00;;;22.70;66.10;;;;;;5002054;28;20041;-81
2022/08/31 04:06:43;;;;;;;13.13;7.82;;;22.80;66.30;;;;;;5013415;28;20037;-80
2022/08/31 04:09:28;;;;;;;14.80;8.07;;;22.80;66.30;;;;;;5015319;28;20045;-80
2022/08/31 04:12:17;;;;;;;13.65;8.43;;;22.70;66.20;;;;;;5032419;28;20030;-80
2022/08/31 04:15:02;;;;;;;13.30;8.45;;;22.70;66.20;;;;;;5022397;28;20132;-80
2022/08/31 04:17:48;;;;;;;13.40;8.30;;;22.70;66.30;;;;;;4988645;28;20045;-81
2022/08/31 04:20:41;;;;;;;14.40;8.40;;;22.70;66.40;;;;;;5022278;28;20046;-81
2022/08/31 04:23:08;;;;;;;13.43;8.32;;;22.80;66.50;;;;;;4975893;28;20072;-81
2022/08/31 04:25:41;;;;;;;12.35;8.48;;;22.70;66.40;;;;;;5015139;28;20079;-81
2022/08/31 04:28:08;;;;;;;13.20;7.88;;;22.70;66.40;;;;;;5004266;28;20029;-81
2022/08/31 04:30:42;;;;;;;12.70;7.88;;;22.70;66.40;;;;;;5011558;28;20383;-81
2022/08/31 04:33:09;;;;;;;12.93;7.97;;;22.70;66.30;;;;;;5037257;28;20029;-81
2022/08/31 04:35:37;;;;;;;13.60;7.80;;;22.80;66.40;;;;;;5010630;28;20052;-80
2022/08/31 04:38:03;;;;;;;13.80;7.75;;;22.80;66.40;;;;;;4997476;28;20034;-80
2022/08/31 04:40:29;;;;;;;12.48;7.40;;;22.70;66.30;;;;;;5033170;28;20029;-78
2022/08/31 04:42:58;;;;;;;11.38;7.43;;;22.70;66.40;;;;;;5014434;28;20088;-79
2022/08/31 04:45:24;;;;;;;15.38;8.13;;;22.70;66.40;;;;;;5014643;28;20104;-80
2022/08/31 04:47:51;;;;;;;10.82;7.07;;;22.70;66.30;;;;;;5014389;28;20032;-81
2022/08/31 04:50:18;;;;;;;12.15;7.50;;;22.70;66.40;;;;;;5014885;28;20108;-81
2022/08/31 04:53:02;;;;;;;13.10;7.88;;;22.70;66.30;;;;;;5014928;28;20048;-80
2022/08/31 04:55:28;;;;;;;14.82;7.07;;;22.70;66.30;;;;;;4999122;28;20025;-79
2022/08/31 04:57:54;;;;;;;12.75;8.00;;;22.70;66.40;;;;;;4981262;28;20397;-80
2022/08/31 05:00:20;;;;;;;10.25;7.00;;;22.70;66.40;;;;;;5014439;28;20068;-81
2022/08/31 05:03:04;;;;;;;12.73;7.60;;;22.70;66.40;;;;;;5019896;28;20151;-81
2022/08/31 05:05:37;;;;;;;11.60;6.80;;;22.70;66.40;;;;;;4997348;28;20022;-81
2022/08/31 05:08:03;;;;;;;13.07;7.10;;;22.70;66.60;;;;;;4978520;28;20033;-81
2022/08/31 05:10:28;;;;;;;11.32;6.85;;;22.70;66.50;;;;;;5013950;28;20028;-80
2022/08/31 05:12:54;;;;;;;14.38;7.45;;;22.70;66.50;;;;;;5012784;28;20030;-80
2022/08/31 05:15:21;;;;;;;10.60;6.60;;;22.70;66.80;;;;;;5014227;28;20030;-80
2022/08/31 05:17:47;;;;;;;10.77;6.70;;;22.70;66.60;;;;;;5000911;28;20032;-80
2022/08/31 05:20:12;;;;;;;11.52;6.97;;;22.70;66.50;;;;;;5036341;28;20029;-80
2022/08/31 05:22:39;;;;;;;11.13;6.95;;;22.70;66.40;;;;;;4993541;28;20037;-80
2022/08/31 05:25:06;;;;;;;12.15;6.97;;;22.70;66.40;;;;;;4981424;28;20037;-81
2022/08/31 05:27:33;;;;;;;10.05;6.15;;;22.80;66.40;;;;;;4997024;28;20029;-81
2022/08/31 05:30:00;;;;;;;10.20;6.65;;;22.80;66.30;;;;;;5013046;28;20151;-81
2022/08/31 05:32:44;;;;;;;12.35;6.68;;;22.70;66.40;;;;;;5025884;28;20495;-81
2022/08/31 05:35:11;;;;;;;9.95;6.30;;;22.70;66.20;;;;;;5012621;28;20030;-81
2022/08/31 05:37:39;;;;;;;10.45;6.57;;;22.70;66.40;;;;;;5014266;28;20026;-81
2022/08/31 05:40:07;;;;;;;10.77;6.22;;;22.70;66.10;;;;;;5011926;28;20037;-82
2022/08/31 05:42:33;;;;;;;13.00;6.93;;;22.70;66.10;;;;;;4990794;28;20030;-82
2022/08/31 05:44:59;;;;;;;9.32;6.03;;;22.80;66.10;;;;;;5003781;28;20105;-81
2022/08/31 05:47:25;;;;;;;11.20;6.93;;;22.70;66.10;;;;;;5013511;28;20100;-82
2022/08/31 05:49:51;;;;;;;11.25;6.55;;;22.80;66.10;;;;;;4995639;28;20029;-81
2022/08/31 05:52:19;;;;;;;10.73;6.43;;;22.80;66.10;;;;;;5013647;28;20485;-79
2022/08/31 05:54:45;;;;;;;12.02;6.63;;;22.80;66.20;;;;;;5012860;28;20021;-79
2022/08/31 05:57:11;;;;;;;9.32;6.00;;;22.80;66.40;;;;;;5013539;28;20033;-79
2022/08/31 05:59:38;;;;;;;9.30;6.20;;;22.70;66.20;;;;;;4996229;28;20379;-81
2022/08/31 06:02:09;;;;;;;10.52;6.18;;;22.70;66.40;;;;;;5011243;28;21084;-81
2022/08/31 06:04:35;;;;;;;13.38;6.00;;;22.70;66.20;;;;;;5012605;28;20488;-82
2022/08/31 06:07:01;;;;;;;10.60;6.30;;;22.70;66.30;;;;;;4981549;28;20034;-80
2022/08/31 06:09:33;;;;;;;15.57;6.25;;;22.70;66.50;;;;;;5015932;28;20104;-80
2022/08/31 06:12:02;;;;;;;10.65;6.38;;;22.70;66.50;;;;;;5024204;28;20036;-83
2022/08/31 06:14:28;;;;;;;10.32;6.22;;;22.80;66.70;;;;;;5014289;28;20021;-83
2022/08/31 06:16:56;;;;;;;10.35;6.28;;;22.70;66.40;;;;;;5013313;28;20025;-82
2022/08/31 06:19:21;;;;;;;13.75;6.03;;;22.70;66.50;;;;;;5009410;28;20161;-82
2022/08/31 06:21:50;;;;;;;11.50;6.38;;;22.70;67.10;;;;;;5030471;28;20026;-81
2022/08/31 06:24:21;;;;;;;10.40;6.10;;;22.70;66.30;;;;;;5012849;28;20040;-83
2022/08/31 06:26:54;;;;;;;10.52;5.90;;;22.70;66.20;;;;;;5013311;28;20024;-83
2022/08/31 06:29:23;;;;;;;30.50;6.68;;;22.70;66.40;;;;;;5012297;28;20381;-83
2022/08/31 06:31:49;;;;;;;11.52;5.85;;;22.80;66.60;;;;;;5013958;28;20036;-83
2022/08/31 06:34:20;;;;;;;17.38;6.20;;;22.70;66.40;;;;;;5010600;28;20030;-82
2022/08/31 06:36:51;;;;;;;18.10;6.00;;;22.70;66.70;;;;;;5024970;28;20095;-82
2022/08/31 06:39:29;;;;;;;13.35;5.93;;;22.70;66.80;;;;;;5010824;28;20104;-80
2022/08/31 06:42:15;;;;;;;16.23;5.63;;;22.70;66.60;;;;;;4975095;28;20041;-80
2022/08/31 06:45:00;;;;;;;11.85;5.75;;;22.80;66.70;;;;;;5029999;28;20022;-81
2022/08/31 06:47:48;;;;;;;9.57;5.37;;;22.70;66.70;;;;;;4993230;28;20101;-81
2022/08/31 06:50:16;;;;;;;13.63;5.88;;;22.70;66.50;;;;;;5016671;28;20030;-80
2022/08/31 06:52:42;;;;;;;14.13;5.68;;;22.70;66.60;;;;;;5017267;28;20033;-81
2022/08/31 06:55:32;;;;;;;17.83;5.82;;;22.70;66.60;;;;;;5009328;28;20045;-80
2022/08/31 06:58:17;;;;;;;11.52;5.40;;;22.70;66.70;;;;;;5028992;28;20040;-82
2022/08/31 07:01:27;;;;;;;10.32;5.47;;;22.80;66.80;;;;;;5026422;22;20053;-84
2022/08/31 07:04:00;;;;;;;11.68;6.07;;;22.70;66.60;;;;;;5023052;28;20531;-83
2022/08/31 07:06:45;;;;;;;13.68;5.53;;;22.80;66.30;;;;;;5020184;28;20022;-83
2022/08/31 07:09:16;;;;;;;8.68;5.10;;;22.70;66.00;;;;;;5009455;28;20385;-82
2022/08/31 07:11:45;;;;;;;10.57;5.88;;;22.80;66.20;;;;;;5025699;28;20100;-82
2022/08/31 07:14:14;;;;;;;12.00;5.60;;;22.70;66.00;;;;;;4992055;28;20057;-82
2022/08/31 07:16:41;;;;;;;8.60;5.28;;;22.80;66.00;;;;;;5027120;28;20036;-82
2022/08/31 07:19:07;;;;;;;9.48;5.50;;;22.80;66.00;;;;;;5026666;28;20037;-82
2022/08/31 07:21:39;;;;;;;9.35;5.20;;;22.90;66.10;;;;;;5003920;28;20048;-82
2022/08/31 07:24:06;;;;;;;9.75;5.18;;;22.80;66.00;;;;;;5004608;28;20037;-82
2022/08/31 07:26:35;;;;;;;11.52;5.28;;;22.90;66.20;;;;;;5023533;28;20060;-83
2022/08/31 07:29:05;;;;;;;10.40;5.70;;;22.90;66.10;;;;;;5031084;28;20026;-83
2022/08/31 07:31:39;;;;;;;16.50;5.53;;;22.90;66.30;;;;;;5025455;28;20248;-83
2022/08/31 07:34:06;;;;;;;13.93;6.03;;;22.90;66.10;;;;;;5006556;28;20067;-83
2022/08/31 07:42:07;;;;;;;11.73;5.50;;;22.90;66.40;;;;;;4994842;28;20049;-83
2022/08/31 07:42:17;;;;;;;11.18;5.57;;;22.90;66.50;;;;;;5001856;28;20040;-84
2022/08/31 07:44:46;;;;;;;;;;;22.90;65.80;;;;;;5003739;28;20039;-83
2022/08/31 07:47:13;;;;;;;12.93;5.32;;;22.90;66.50;;;;;;5009481;28;21506;-83
2022/08/31 07:49:49;;;;;;;10.93;5.60;;;22.90;66.90;;;;;;5027218;28;20044;-82
2022/08/31 07:52:45;;;;;;;9.70;5.25;;;23.00;67.20;;;;;;5009532;28;20029;-85
2022/08/31 07:55:38;;;;;;;14.38;5.43;;;22.90;66.30;;;;;;5018323;28;20433;-85
2022/08/31 07:58:14;;;;;;;11.88;5.07;;;22.90;66.20;;;;;;5000542;28;20116;-85
2022/08/31 08:00:42;;;;;;;10.60;5.18;;;22.90;66.40;;;;;;4994168;28;20037;-86
2022/08/31 08:03:10;;;;;;;12.07;5.07;;;22.90;67.10;;;;;;5007731;28;20034;-86
2022/08/31 08:05:57;;;;;;;14.80;5.50;;;22.90;66.50;;;;;;5027454;28;20040;-87
2022/08/31 08:08:33;;;;;;;14.63;6.20;;;22.90;66.10;;;;;;5024147;28;20381;-86
2022/08/31 08:11:20;;;;;;;11.85;4.68;;;22.90;66.50;;;;;;5010730;28;20030;-86
2022/08/31 08:14:07;;;;;;;9.63;4.55;;;23.00;66.80;;;;;;5019076;28;20048;-84
2022/08/31 08:16:45;;;;;;;10.43;4.67;;;22.90;66.40;;;;;;5007045;28;20377;-86
2022/08/31 08:19:33;;;;;;;12.80;4.90;;;23.00;67.10;;;;;;5003851;28;20032;-85
2022/08/31 08:22:01;;;;;;;8.15;4.57;;;23.00;67.00;;;;;;5003736;28;20437;-85
2022/08/31 08:24:32;;;;;;;9.70;4.78;;;23.00;67.40;;;;;;5017784;28;20039;-86
2022/08/31 08:27:04;;;;;;;10.68;4.88;;;23.00;67.20;;;;;;5050610;28;20040;-86
2022/08/31 08:29:50;;;;;;;13.18;4.95;;;23.00;66.50;;;;;;4979876;28;20423;-87
2022/08/31 08:32:22;;;;;;;13.63;5.18;;;23.00;66.60;;;;;;4991408;28;20029;-89
2022/08/31 08:34:49;;;;;;;9.68;4.63;;;23.00;67.40;;;;;;5020010;28;20017;-90
2022/08/31 08:37:15;;;;;;;14.10;4.57;;;23.00;66.70;;;;;;4992138;28;20035;-88
2022/08/31 08:39:41;;;;;;;9.50;4.55;;;23.00;66.60;;;;;;5002341;28;20029;-89
2022/08/31 08:42:14;;;;;;;11.13;5.03;;;23.00;66.70;;;;;;4993831;28;20116;-89
2022/08/31 08:44:42;;;;;;;10.10;5.10;;;23.00;66.70;;;;;;4987621;28;20083;-88
2022/08/31 08:47:14;;;;;;;10.60;4.30;;;23.00;66.50;;;;;;5008140;28;20477;-88
2022/08/31 08:49:49;;;;;;;14.43;4.65;;;23.00;67.30;;;;;;5008778;28;20033;-87
2022/08/31 08:52:24;;;;;;;9.40;4.50;;;22.90;66.60;;;;;;5008240;28;20036;-88
2022/08/31 08:54:53;;;;;;;12.55;5.00;;;23.00;66.70;;;;;;5016323;28;20021;-88
2022/08/31 08:57:32;;;;;;;10.32;4.47;;;23.00;66.70;;;;;;5003697;28;20037;-86
2022/08/31 09:00:08;;;;;;;9.95;4.32;;;23.00;66.60;;;;;;5023235;28;20045;-86
2022/08/31 09:03:00;;;;;;;9.15;4.05;;;23.00;66.70;;;;;;5007218;28;20025;-86
2022/08/31 09:06:01;;;;;;;12.88;4.95;;;23.00;66.60;;;;;;5018648;28;20090;-87
2022/08/31 09:08:50;;;;;;;9.35;4.82;;;23.00;66.80;;;;;;4991922;28;20029;-90
2022/08/31 09:11:34;;;;;;;12.88;4.55;;;23.00;67.60;;;;;;5010596;28;20163;-89
2022/08/31 09:14:18;;;;;;;11.50;4.60;;;23.10;67.20;;;;;;5016961;28;20516;-86
2022/08/31 09:17:15;;;;;;;17.55;4.85;;;23.10;68.20;;;;;;5021897;28;20036;-89
2022/08/31 09:19:58;;;;;;;11.82;4.70;;;23.10;68.60;;;;;;5006011;28;20031;-76
2022/08/31 09:22:29;;;;;;;10.55;4.63;;;23.20;68.00;;;;;;5014595;28;20036;-76
2022/08/31 09:24:58;;;;;;;11.02;4.60;;;23.30;67.80;;;;;;5014135;28;20036;-75
2022/08/31 09:27:56;;;;;;;13.68;5.00;;;23.20;67.10;;;;;;5009983;28;20060;-76
2022/08/31 09:30:51;;;;;;;15.55;4.60;;;23.30;66.60;;;;;;5047909;28;20100;-76
2022/08/31 09:33:23;;;;;;;10.30;4.60;;;23.30;66.90;;;;;;4999517;28;20125;-77
2022/08/31 09:36:00;;;;;;;12.38;4.22;;;23.20;66.10;;;;;;5043830;28;20057;-77
2022/08/31 09:38:30;;;;;;;26.33;15.43;;;23.20;66.50;;;;;;5041479;28;20021;-77
2022/08/31 09:40:57;;;;;;;31.95;20.60;;;23.20;65.10;;;;;;5026862;28;20033;-77
2022/08/31 09:43:23;;;;;;;28.35;16.85;;;23.20;64.60;;;;;;5028485;28;20107;-76
2022/08/31 09:46:08;;;;;;;24.55;16.27;;;23.20;64.40;;;;;;5050620;28;20028;-76
2022/08/31 09:48:54;;;;;;;18.20;10.65;;;23.10;64.80;;;;;;5046550;28;20062;-76
2022/08/31 09:51:31;;;;;;;16.15;7.32;;;23.00;63.70;;;;;;5032085;28;20031;-76
2022/08/31 09:56:57;;;;;;;13.25;6.00;;;23.00;63.00;;;;;;5030181;28;20055;-75
2022/08/31 09:59:32;;;;;;;11.25;6.00;;;23.00;62.80;;;;;;5046841;28;20078;-76
2022/08/31 10:02:01;;;;;;;8.57;4.90;;;23.00;63.10;;;;;;5039001;28;20032;-75
2022/08/31 10:04:30;;;;;;;20.88;5.68;;;23.00;60.70;;;;;;5039232;28;20028;-76
2022/08/31 10:07:20;;;;;;;11.65;4.43;;;23.00;60.40;;;;;;5025176;28;20107;-76
2022/08/31 10:09:48;;;;;;;15.50;4.15;;;23.10;61.60;;;;;;5000296;28;20034;-76
2022/08/31 10:12:45;;;;;;;11.27;3.78;;;23.10;60.80;;;;;;5012098;28;20360;-76
2022/08/31 10:15:19;;;;;;;10.63;3.38;;;23.10;61.10;;;;;;5012611;28;20026;-76
2022/08/31 10:18:12;;;;;;;16.23;3.72;;;23.10;59.30;;;;;;5031120;28;20029;-75
2022/08/31 10:21:07;;;;;;;8.45;4.18;;;23.10;60.80;;;;;;5035130;28;20556;-75
2022/08/31 10:23:53;;;;;;;8.15;3.17;;;23.10;60.60;;;;;;5032658;28;20021;-76
2022/08/31 10:26:45;;;;;;;5.57;2.97;;;23.10;60.40;;;;;;5030259;28;20119;-74
2022/08/31 10:29:25;;;;;;;12.35;2.97;;;23.10;60.30;;;;;;5025030;28;20067;-74
2022/08/31 10:31:56;;;;;;;8.93;3.10;;;23.10;58.60;;;;;;5017202;28;20070;-75
2022/08/31 10:37:53;;;;;;;5.68;3.00;;;23.00;60.10;;;;;;5051632;28;20116;-75
2022/08/31 10:40:33;;;;;;;8.05;2.92;;;23.00;61.90;;;;;;4990106;28;20044;-74
2022/08/31 10:43:17;;;;;;;42.15;33.28;;;23.00;61.90;;;;;;5034401;28;20444;-74
2022/08/31 10:45:47;;;;;;;24.42;20.00;;;23.00;60.10;;;;;;5012452;28;20022;-75
2022/08/31 10:48:20;;;;;;;13.00;8.48;;;23.00;60.20;;;;;;5008538;28;20025;-75
2022/08/31 10:50:57;;;;;;;18.38;8.80;;;23.00;60.20;;;;;;5009498;28;20036;-76
2022/08/31 10:53:32;;;;;;;13.73;7.47;;;23.00;61.80;;;;;;5021153;28;20021;-75
2022/08/31 10:56:13;;;;;;;21.45;7.70;;;22.90;61.50;;;;;;5031387;28;20108;-75
2022/08/31 10:58:59;;;;;;;17.58;7.00;;;23.00;61.50;;;;;;5032719;28;20033;-74
2022/08/31 11:01:43;;;;;;;14.57;6.75;;;23.00;61.20;;;;;;5033472;28;20081;-75
2022/08/31 11:04:35;;;;;;;11.05;6.00;;;23.00;60.60;;;;;;5028814;28;20044;-75
2022/08/31 11:07:14;;;;;;;12.73;5.45;;;23.00;59.80;;;;;;5037917;28;20025;-75
2022/08/31 11:09:53;;;;;;;17.40;5.72;;;23.00;60.10;;;;;;5028127;28;20070;-75
2022/08/31 11:12:26;;;;;;;18.17;5.93;;;23.00;61.00;;;;;;5038999;28;20036;-76
2022/08/31 11:15:14;;;;;;;18.77;5.68;;;22.90;61.40;;;;;;5030855;28;20056;-75
2022/08/31 11:17:52;;;;;;;14.38;5.32;;;22.90;61.10;;;;;;5011359;28;20021;-75
2022/08/31 11:20:38;;;;;;;10.20;5.43;;;22.90;61.00;;;;;;5038837;28;20056;-76
2022/08/31 11:23:13;;;;;;;10.00;5.90;;;22.90;62.00;;;;;;5050262;28;20037;-76
2022/08/31 11:26:13;;;;;;;14.45;5.03;;;22.90;61.80;;;;;;5036139;28;20030;-76
2022/08/31 11:28:54;;;;;;;13.80;4.78;;;22.90;59.60;;;;;;5032086;28;20061;-77
2022/08/31 11:31:24;;;;;;;8.88;3.67;;;23.00;59.40;;;;;;5013831;28;20025;-78
2022/08/31 11:33:56;;;;;;;13.48;4.20;;;23.00;58.30;;;;;;5033954;28;20044;-76
2022/08/31 11:36:45;;;;;;;14.10;4.32;;;23.00;58.70;;;;;;5013107;28;20179;-76
2022/08/31 11:39:34;;;;;;;12.05;4.05;;;23.00;59.60;;;;;;5027535;28;20079;-76
2022/08/31 11:42:02;;;;;;;9.07;4.68;;;23.00;58.80;;;;;;5003328;28;20036;-76
2022/08/31 11:44:32;;;;;;;15.73;3.28;;;23.00;60.00;;;;;;5005776;28;20061;-76
2022/08/31 11:47:14;;;;;;;16.15;4.20;;;23.00;58.70;;;;;;5048920;28;20017;-76
2022/08/31 11:49:48;;;;;;;14.23;4.78;;;23.00;59.00;;;;;;5044589;28;20385;-74
2022/08/31 11:52:24;;;;;;;12.45;6.00;;;23.00;58.90;;;;;;5042528;28;20028;-76
2022/08/31 11:54:51;;;;;;;19.55;8.23;;;23.00;59.50;;;;;;5021833;28;20033;-75
2022/08/31 11:57:22;;;;;;;11.30;4.47;;;23.00;59.00;;;;;;5038214;28;20055;-76
2022/08/31 11:59:50;;;;;;;10.38;4.70;;;23.00;60.10;;;;;;5002709;28;20033;-76
2022/08/31 12:02:19;;;;;;;13.85;5.00;;;22.90;60.60;;;;;;5048618;28;20029;-75
2022/08/31 12:04:50;;;;;;;9.23;5.03;;;22.90;59.90;;;;;;5026868;28;20028;-75
2022/08/31 12:07:35;;;;;;;11.45;5.80;;;22.90;61.30;;;;;;4996852;28;20419;-76
2022/08/31 12:10:16;;;;;;;11.55;4.97;;;22.90;61.40;;;;;;5032543;28;20025;-76
2022/08/31 12:12:57;;;;;;;12.02;4.45;;;22.90;59.90;;;;;;5015930;28;20029;-76
2022/08/31 12:15:42;;;;;;;10.90;5.63;;;22.90;59.30;;;;;;5035364;28;20034;-75
2022/08/31 12:18:37;;;;;;;12.50;5.28;;;22.90;60.40;;;;;;5013700;28;20029;-76
2022/08/31 12:24:17;;;;;;;23.27;4.95;;;22.90;60.70;;;;;;5043169;28;20033;-76
2022/08/31 12:27:13;;;;;;;8.38;4.90;;;22.90;60.10;;;;;;5034052;28;20089;-76
2022/08/31 12:29:40;;;;;;;6.93;3.97;;;22.90;60.80;;;;;;4996966;28;20056;-76
2022/08/31 12:32:26;;;;;;;7.85;3.88;;;22.80;60.90;;;;;;5032723;28;20413;-76
2022/08/31 12:35:08;;;;;;;6.10;3.40;;;22.80;60.40;;;;;;5014124;28;20458;-76
2022/08/31 12:37:35;;;;;;;14.02;3.30;;;22.80;60.50;;;;;;5031268;28;20477;-75
2022/08/31 12:40:23;;;;;;;9.57;2.85;;;22.80;58.60;;;;;;5025303;28;20092;-75
2022/08/31 12:42:57;;;;;;;4.90;2.15;;;22.80;57.60;;;;;;5003842;28;20126;-74
2022/08/31 12:45:34;;;;;;;5.75;2.53;;;22.80;55.70;;;;;;4998333;28;20052;-75
2022/08/31 12:48:21;;;;;;;4.78;1.80;;;22.80;57.20;;;;;;4995887;28;20029;-75
2022/08/31 12:51:01;;;;;;;3.10;2.05;;;22.80;54.30;;;;;;5008045;28;20022;-75
2022/08/31 12:53:33;;;;;;;9.05;2.00;;;22.80;54.60;;;;;;5042509;28;20044;-75
2022/08/31 12:56:09;;;;;;;5.50;1.80;;;22.80;55.20;;;;;;5048053;28;20094;-75
2022/08/31 12:59:02;;;;;;;7.93;2.17;;;22.80;55.00;;;;;;5014926;28;20025;-76
2022/08/31 13:01:28;;;;;;;5.03;1.92;;;22.80;55.50;;;;;;5014237;28;20040;-75
2022/08/31 13:03:59;;;;;;;5.90;2.40;;;22.90;56.10;;;;;;5031577;28;20029;-76
2022/08/31 13:06:30;;;;;;;3.70;1.95;;;22.90;57.50;;;;;;5040352;28;20021;-77
2022/08/31 13:09:00;;;;;;;3.00;1.88;;;22.80;56.80;;;;;;5007984;28;20033;-76
2022/08/31 13:11:44;;;;;;;3.60;1.75;;;22.80;56.50;;;;;;5025359;28;20025;-76
2022/08/31 13:14:26;;;;;;;6.07;1.70;;;22.80;56.00;;;;;;5027816;28;20036;-76
2022/08/31 13:17:13;;;;;;;5.38;2.20;;;22.80;55.60;;;;;;5012913;28;20063;-77
2022/08/31 13:19:49;;;;;;;4.68;1.73;;;22.70;57.40;;;;;;5011226;28;20370;-76
2022/08/31 13:22:42;;;;;;;13.68;1.85;;;22.70;55.60;;;;;;5043784;28;20037;-75
2022/08/31 13:25:34;;;;;;;9.90;3.45;;;22.80;54.60;;;;;;5042910;28;20113;-76